Time;durP1;ratioP1;P1;durP2;ratioP2;P2;SDS_P1;SDS_P2;PMS_P1;PMS_P2;Temp;Humidity;BMP_temperature;BMP_pressure;BME280_temperature;BME280_humidity;BME280_pressure;Samples;Min_cycle;Max_cycle;Signal;HPM_P1;HPM_P2
2023/04/22 00:02:15;;;;;;;14.13;7.75;;;;;;;11.87;100.00;99763.34;4994022;28;20055;-92
2023/04/22 00:05:00;;;;;;;13.75;8.68;;;;;;;11.57;100.00;99713.88;4968100;28;20063;-92
2023/04/22 00:07:28;;;;;;;10.38;7.80;;;;;;;11.75;100.00;99753.47;4973540;28;20057;-93
2023/04/22 00:09:57;;;;;;;10.70;8.60;;;;;;;11.69;100.00;99748.53;4954188;28;20046;-94
2023/04/22 00:12:26;;;;;;;13.32;9.35;;;;;;;11.60;100.00;99740.22;4942959;28;20070;-93
2023/04/22 00:14:55;;;;;;;13.90;9.70;;;;;;;11.71;100.00;99771.38;4959545;28;20039;-94
2023/04/22 00:17:36;;;;;;;12.45;9.00;;;;;;;11.56;100.00;99754.59;4955161;28;20085;-92
2023/04/22 00:20:38;;;;;;;13.88;9.43;;;;;;;11.50;100.00;99754.09;4968472;28;20039;-91
2023/04/22 00:23:17;;;;;;;12.07;8.75;;;;;;;11.47;100.00;99755.16;4956181;28;20043;-92
2023/04/22 00:26:09;;;;;;;12.93;8.77;;;;;;;11.55;100.00;99767.94;4942582;28;20042;-92
2023/04/22 00:28:51;;;;;;;14.52;9.85;;;;;;;11.51;100.00;99761.97;4950067;28;20460;-92
2023/04/22 00:31:24;;;;;;;12.57;9.00;;;;;;;11.50;100.00;99767.34;4938949;28;20139;-94
2023/04/22 00:33:55;;;;;;;12.32;9.40;;;;;;;11.41;100.00;99744.91;4955628;28;20042;-92
2023/04/22 00:36:26;;;;;;;11.68;8.73;;;;;;;11.48;100.00;99761.31;4943103;28;20146;-93
2023/04/22 00:38:54;;;;;;;15.35;9.32;;;;;;;11.49;100.00;99766.50;4955933;28;20054;-94
2023/04/22 00:41:29;;;;;;;16.00;10.10;;;;;;;11.51;100.00;99761.13;4977070;28;20053;-93
2023/04/22 00:44:01;;;;;;;14.25;9.27;;;;;;;11.22;100.00;99721.31;4965817;28;20043;-93
2023/04/22 00:46:44;;;;;;;13.13;10.02;;;;;;;10.94;100.00;99675.38;4953082;28;20043;-92
2023/04/22 00:49:15;;;;;;;15.45;9.60;;;;;;;11.40;100.00;99764.41;4957205;28;20039;-92
2023/04/22 00:51:47;;;;;;;13.48;9.50;;;;;;;11.45;100.00;99756.19;4953671;28;20028;-93
2023/04/22 00:54:15;;;;;;;14.60;10.30;;;;;;;11.46;100.00;99763.22;4961643;28;20057;-94
2023/04/22 00:56:45;;;;;;;13.20;9.68;;;;;;;11.39;100.00;99757.41;4955483;28;20112;-93
2023/04/22 00:59:17;;;;;;;13.50;9.52;;;;;;;11.40;100.00;99755.63;4948327;28;20160;-93
2023/04/22 01:01:43;;;;;;;13.30;9.50;;;;;;;11.11;100.00;99712.31;4936885;28;20055;-93
2023/04/22 01:04:56;;;;;;;12.52;9.25;;;;;;;11.35;100.00;99758.53;4960807;28;20074;-94
2023/04/22 01:07:33;;;;;;;11.82;9.20;;;;;;;11.26;100.00;99745.84;4937833;28;20036;-91
2023/04/22 01:10:19;;;;;;;15.80;10.52;;;;;;;11.18;100.00;99737.50;4992967;28;20088;-91
2023/04/22 01:13:09;;;;;;;12.52;9.23;;;;;;;11.25;100.00;99752.94;4979444;28;20057;-92
2023/04/22 01:15:39;;;;;;;16.58;9.63;;;;;;;11.16;100.00;99728.81;5036841;28;20051;-92
2023/04/22 01:18:12;;;;;;;12.48;9.80;;;;;;;11.28;100.00;99745.75;4989575;28;20073;-92
2023/04/22 01:20:40;;;;;;;12.43;9.63;;;;;;;11.23;100.00;99741.59;4963372;28;20063;-91
2023/04/22 01:23:18;;;;;;;16.00;9.45;;;;;;;11.22;100.00;99729.28;4969162;28;20047;-92
2023/04/22 01:25:47;;;;;;;13.02;10.43;;;;;;;11.16;100.00;99740.25;4973235;28;20120;-93
2023/04/22 01:28:17;;;;;;;13.15;9.52;;;;;;;11.07;100.00;99727.53;4955205;28;20070;-92
2023/04/22 01:30:50;;;;;;;12.55;9.35;;;;;;;11.11;100.00;99736.16;4941554;28;20050;-93
2023/04/22 01:33:29;;;;;;;11.50;9.45;;;;;;;10.92;100.00;99712.56;4947982;28;20053;-92
2023/04/22 01:36:04;;;;;;;14.18;9.10;;;;;;;11.10;100.00;99750.34;5017251;28;20047;-92
2023/04/22 01:38:40;;;;;;;13.02;9.20;;;;;;;10.93;100.00;99722.22;4949015;28;20039;-92
2023/04/22 01:41:18;;;;;;;14.35;9.48;;;;;;;10.87;100.00;99720.75;4949956;28;20042;-91
2023/04/22 01:43:48;;;;;;;10.60;8.98;;;;;;;10.51;100.00;99662.03;4969168;28;20059;-92
2023/04/22 01:46:29;;;;;;;13.45;8.77;;;;;;;10.71;100.00;99693.47;5017312;28;20027;-91
2023/04/22 01:48:58;;;;;;;13.75;8.85;;;;;;;10.71;100.00;99696.13;4972898;28;20037;-91
2023/04/22 01:51:27;;;;;;;12.80;9.07;;;;;;;10.76;100.00;99704.66;4969743;28;20035;-90
2023/04/22 01:53:58;;;;;;;14.60;9.38;;;;;;;11.10;100.00;99745.91;4968473;28;20047;-92
2023/04/22 01:56:34;;;;;;;12.40;9.52;;;;;;;11.01;100.00;99705.88;4953881;28;20114;-91
2023/04/22 01:59:06;;;;;;;15.38;8.88;;;;;;;11.17;100.00;99738.47;4963733;28;20047;-92
2023/04/22 02:01:35;;;;;;;14.55;9.23;;;;;;;10.95;100.00;99716.81;4952190;28;20038;-91
2023/04/22 02:04:09;;;;;;;10.45;8.13;;;;;;;10.79;100.00;99693.88;4958254;28;20043;-92
2023/04/22 02:06:48;;;;;;;11.90;8.70;;;;;;;10.90;100.00;99710.00;4938211;28;20048;-92
2023/04/22 02:09:19;;;;;;;11.25;8.93;;;;;;;11.04;100.00;99734.81;4943646;28;20111;-90
2023/04/22 02:12:01;;;;;;;14.18;8.95;;;;;;;11.03;100.00;99747.19;4964838;28;20126;-93
2023/04/22 02:14:29;;;;;;;11.50;8.90;;;;;;;10.98;100.00;99740.50;4962022;28;20058;-93
2023/04/22 02:17:01;;;;;;;12.60;8.63;;;;;;;11.11;100.00;99757.38;4945476;29;20047;-93
2023/04/22 02:19:28;;;;;;;11.13;8.15;;;;;;;11.07;100.00;99737.28;4948187;28;20054;-93
2023/04/22 02:22:23;;;;;;;9.45;7.93;;;;;;;11.14;100.00;99751.88;4944778;28;20138;-93
2023/04/22 02:24:51;;;;;;;10.95;8.25;;;;;;;11.16;100.00;99739.41;4955124;28;20058;-93
2023/04/22 02:27:26;;;;;;;11.38;8.73;;;;;;;11.20;100.00;99740.91;4942200;28;20157;-93
2023/04/22 02:29:56;;;;;;;11.38;7.97;;;;;;;11.22;100.00;99744.31;4946817;28;20043;-92
2023/04/22 02:32:32;;;;;;;11.07;8.10;;;;;;;11.13;100.00;99734.28;5021338;28;20045;-91
2023/04/22 02:35:15;;;;;;;11.15;8.10;;;;;;;10.90;100.00;99694.09;5038437;28;20084;-91
2023/04/22 02:37:50;;;;;;;12.10;8.15;;;;;;;10.82;100.00;99688.41;5025533;28;20044;-91
2023/04/22 02:40:31;;;;;;;11.90;7.90;;;;;;;11.00;100.00;99730.66;5060072;28;20041;-91
2023/04/22 02:42:59;;;;;;;10.32;7.30;;;;;;;11.01;100.00;99719.13;5045110;28;20064;-91
2023/04/22 02:45:28;;;;;;;9.40;7.88;;;;;;;11.12;100.00;99736.06;5057509;28;20029;-91
2023/04/22 02:48:06;;;;;;;8.57;7.07;;;;;;;11.23;100.00;99749.53;5045207;28;20046;-91
2023/04/22 02:50:35;;;;;;;8.95;7.15;;;;;;;11.14;100.00;99728.91;5057736;28;20065;-92
2023/04/22 02:53:02;;;;;;;8.75;7.60;;;;;;;11.22;100.00;99741.66;5034624;28;20061;-93
2023/04/22 02:55:40;;;;;;;9.95;7.50;;;;;;;11.27;100.00;99741.41;5051231;28;20164;-92
2023/04/22 02:58:16;;;;;;;11.23;7.85;;;;;;;11.23;100.00;99751.31;5035505;28;20056;-93
2023/04/22 03:00:59;;;;;;;;;;;;;;;11.21;100.00;99748.75;5043756;28;20109;-91
2023/04/22 03:03:38;;;;;;;8.38;7.28;;;;;;;11.04;100.00;99716.25;5054045;28;19956;-92
2023/04/22 03:06:15;;;;;;;8.90;7.05;;;;;;;10.89;100.00;99695.03;5063129;28;20064;-93
2023/04/22 03:08:44;;;;;;;9.37;7.07;;;;;;;11.00;100.00;99733.31;5033255;28;20041;-91
2023/04/22 03:11:14;;;;;;;7.57;6.70;;;;;;;11.11;100.00;99744.13;5057013;28;20491;-91
2023/04/22 03:13:55;;;;;;;8.90;7.35;;;;;;;11.08;100.00;99742.50;5050694;28;20048;-93
2023/04/22 03:16:23;;;;;;;11.30;7.50;;;;;;;11.09;100.00;99748.66;5056548;28;20069;-92
2023/04/22 03:18:57;;;;;;;10.40;6.78;;;;;;;11.07;100.00;99750.53;5040142;28;20046;-95
2023/04/22 03:21:31;;;;;;;8.48;6.45;;;;;;;11.05;100.00;99747.97;5029171;28;20087;-93
2023/04/22 03:24:03;;;;;;;8.13;6.63;;;;;;;11.02;100.00;99744.66;5027580;28;20722;-93
2023/04/22 03:26:32;;;;;;;9.18;6.40;;;;;;;11.01;100.00;99750.91;5037985;28;20105;-93
2023/04/22 03:29:08;;;;;;;10.15;7.28;;;;;;;10.99;100.00;99750.16;5053705;28;20073;-93
2023/04/22 03:31:48;;;;;;;8.63;6.25;;;;;;;11.01;100.00;99758.88;5039261;28;20092;-91
2023/04/22 03:34:44;;;;;;;10.65;6.55;;;;;;;10.96;100.00;99753.81;4963815;28;20028;-92
2023/04/22 03:37:11;;;;;;;10.10;7.00;;;;;;;10.93;100.00;99759.28;4955016;28;20045;-92
2023/04/22 03:39:51;;;;;;;10.55;7.88;;;;;;;10.88;100.00;99751.59;4963326;28;20039;-92
2023/04/22 03:42:24;;;;;;;9.18;7.10;;;;;;;10.82;100.00;99751.13;4978163;28;20039;-91
2023/04/22 03:45:00;;;;;;;8.57;7.45;;;;;;;10.66;100.00;99729.97;4957082;28;20051;-92
2023/04/22 03:47:30;;;;;;;9.50;7.57;;;;;;;10.75;100.00;99753.28;4957127;28;20043;-91
2023/04/22 03:49:57;;;;;;;10.35;7.50;;;;;;;10.35;100.00;99688.53;4963818;28;20028;-92
2023/04/22 03:52:30;;;;;;;9.55;7.68;;;;;;;10.38;100.00;99703.41;4998899;28;20119;-91
2023/04/22 03:55:05;;;;;;;9.35;7.03;;;;;;;10.63;100.00;99747.84;4961869;28;20286;-92
2023/04/22 03:57:37;;;;;;;10.05;6.93;;;;;;;10.29;100.00;99694.16;5023647;28;20047;-91
2023/04/22 04:00:06;;;;;;;9.38;7.20;;;;;;;10.63;100.00;99759.28;4964844;28;20160;-91
2023/04/22 04:02:34;;;;;;;12.23;6.75;;;;;;;10.64;100.00;99749.53;4964992;28;20034;-92
2023/04/22 04:05:05;;;;;;;7.70;6.13;;;;;;;10.66;100.00;99753.81;4979278;28;20104;-92
2023/04/22 04:07:40;;;;;;;9.55;6.15;;;;;;;10.64;100.00;99755.69;4973210;28;20066;-92
2023/04/22 04:10:10;;;;;;;8.60;6.60;;;;;;;10.65;100.00;99752.09;4955858;28;20046;-91
2023/04/22 04:12:39;;;;;;;8.27;6.13;;;;;;;10.60;100.00;99748.84;4982860;28;20068;-92
2023/04/22 04:15:08;;;;;;;10.38;6.80;;;;;;;10.65;100.00;99754.75;5006365;28;20033;-93
2023/04/22 04:17:36;;;;;;;8.57;6.43;;;;;;;10.54;100.00;99743.94;4950774;28;20424;-92
2023/04/22 04:20:03;;;;;;;11.27;6.72;;;;;;;10.56;100.00;99757.91;4950518;28;20103;-91
2023/04/22 04:22:30;;;;;;;10.40;6.60;;;;;;;10.37;100.00;99725.50;4969314;28;20066;-91
2023/04/22 04:25:00;;;;;;;9.60;7.10;;;;;;;10.46;100.00;99751.44;4966261;28;20150;-94
2023/04/22 04:27:29;;;;;;;9.35;6.65;;;;;;;10.41;100.00;99748.19;4997923;28;20066;-91
2023/04/22 04:29:56;;;;;;;11.73;6.78;;;;;;;10.08;100.00;99696.19;4967780;28;20085;-91
2023/04/22 04:32:34;;;;;;;9.80;6.93;;;;;;;10.38;100.00;99749.25;4980254;28;20063;-92
2023/04/22 04:35:04;;;;;;;8.30;6.90;;;;;;;10.36;100.00;99740.53;5015571;28;20043;-92
2023/04/22 04:37:39;;;;;;;7.73;6.37;;;;;;;10.04;100.00;99688.53;4972424;28;20034;-92
2023/04/22 04:40:13;;;;;;;10.60;6.85;;;;;;;10.13;100.00;99710.03;4966950;28;20343;-93
2023/04/22 04:42:42;;;;;;;10.57;6.75;;;;;;;10.08;100.00;99693.53;4977101;28;20033;-93
2023/04/22 04:45:10;;;;;;;10.73;6.72;;;;;;;10.28;100.00;99720.72;5016610;28;20047;-93
2023/04/22 04:47:42;;;;;;;8.45;6.50;;;;;;;10.23;100.00;99720.97;4966951;28;20078;-94
2023/04/22 04:50:14;;;;;;;9.68;6.15;;;;;;;10.05;100.00;99698.19;4955100;28;20070;-93
2023/04/22 04:52:47;;;;;;;9.20;6.82;;;;;;;10.07;100.00;99702.41;4951800;29;20078;-92
2023/04/22 04:55:17;;;;;;;10.45;6.72;;;;;;;10.11;100.00;99713.69;4955271;29;20047;-93
2023/04/22 04:57:48;;;;;;;7.90;6.67;;;;;;;9.91;100.00;99685.72;4950240;29;20047;-93
2023/04/22 05:00:16;;;;;;;9.18;7.10;;;;;;;10.23;100.00;99742.13;4956892;28;20047;-93
2023/04/22 05:02:51;;;;;;;8.27;6.82;;;;;;;9.91;100.00;99676.94;4955267;28;20049;-93
2023/04/22 05:05:19;;;;;;;11.93;7.90;;;;;;;10.35;100.00;99735.31;4946999;28;20043;-93
2023/04/22 05:07:46;;;;;;;8.88;6.60;;;;;;;10.14;100.00;99693.22;4995160;28;20047;-93
2023/04/22 05:10:14;;;;;;;11.07;7.20;;;;;;;10.35;100.00;99722.94;4955852;28;20048;-92
2023/04/22 05:12:46;;;;;;;8.55;6.60;;;;;;;10.42;100.00;99732.22;4961994;28;20114;-93
2023/04/22 05:15:19;;;;;;;10.25;6.80;;;;;;;10.49;100.00;99745.97;4963474;28;20054;-93
2023/04/22 05:17:50;;;;;;;8.43;6.80;;;;;;;10.22;100.00;99682.25;4955501;28;20039;-93
2023/04/22 05:20:18;;;;;;;8.32;6.30;;;;;;;10.63;100.00;99742.53;4982866;28;20043;-94
2023/04/22 05:23:06;;;;;;;9.73;6.53;;;;;;;10.63;100.00;99727.50;4943587;28;20055;-94
2023/04/22 05:25:37;;;;;;;9.07;6.25;;;;;;;10.48;100.00;99704.56;4978328;28;20047;-93
2023/04/22 05:28:18;;;;;;;7.65;6.32;;;;;;;10.40;100.00;99694.41;4990426;28;20047;-93
2023/04/22 05:30:48;;;;;;;10.88;6.68;;;;;;;10.67;100.00;99736.97;4957374;28;20085;-92
2023/04/22 05:33:33;;;;;;;9.45;6.43;;;;;;;10.30;100.00;99668.56;4951883;28;20038;-94
2023/04/22 05:36:01;;;;;;;9.25;6.07;;;;;;;10.81;100.00;99744.97;4976403;28;20109;-94
2023/04/22 05:38:29;;;;;;;10.13;6.65;;;;;;;10.82;100.00;99753.78;4968744;28;20054;-92
2023/04/22 05:41:12;;;;;;;7.65;6.20;;;;;;;10.70;100.00;99738.59;5019819;28;20044;-94
2023/04/22 05:43:43;;;;;;;10.32;6.60;;;;;;;10.43;100.00;99699.53;4975986;28;20057;-93
2023/04/22 05:46:16;;;;;;;9.07;6.22;;;;;;;10.71;100.00;99748.22;5020803;28;20196;-93
2023/04/22 05:48:56;;;;;;;8.02;6.50;;;;;;;10.53;100.00;99707.81;4950975;28;20399;-94
2023/04/22 05:51:25;;;;;;;7.75;5.90;;;;;;;10.87;100.00;99762.28;4981103;28;20126;-94
2023/04/22 05:54:14;;;;;;;8.18;6.20;;;;;;;10.90;100.00;99764.75;4961542;28;20043;-93
2023/04/22 05:56:44;;;;;;;10.05;6.88;;;;;;;10.98;100.00;99762.53;4968914;28;20127;-94
2023/04/22 05:59:23;;;;;;;;;;;;;;;11.03;100.00;99760.44;4996114;28;20042;-94
2023/04/22 06:01:58;;;;;;;9.70;6.78;;;;;;;10.51;100.00;99662.03;4977071;28;19922;-94
2023/04/22 06:04:29;;;;;;;8.90;6.53;;;;;;;10.98;100.00;99735.19;5017472;28;20050;-92
2023/04/22 06:07:05;;;;;;;9.00;6.50;;;;;;;10.84;100.00;99702.44;4998497;28;20047;-92
2023/04/22 06:09:47;;;;;;;;;;;;;;;11.28;100.00;99761.66;4956626;28;20052;-93
2023/04/22 06:12:18;;;;;;;9.48;6.63;;;;;;;11.10;100.00;99713.25;4991130;28;19941;-92
2023/04/22 06:14:49;;;;;;;10.82;6.85;;;;;;;11.60;100.00;99757.91;4998196;28;20052;-93
2023/04/22 06:17:17;;;;;;;7.28;5.57;;;;;;;11.75;100.00;99745.50;4956023;28;20062;-92
2023/04/22 06:20:01;;;;;;;6.40;5.30;;;;;;;11.71;100.00;99712.16;4977760;28;20043;-93
2023/04/22 06:22:31;;;;;;;7.53;5.88;;;;;;;11.67;100.00;99697.38;4985832;28;20045;-92
2023/04/22 06:25:30;;;;;;;6.38;5.10;;;;;;;11.62;100.00;99673.81;4967489;28;20043;-93
2023/04/22 06:28:09;;;;;;;6.93;5.35;;;;;;;12.08;100.00;99750.53;4995015;28;20069;-93
2023/04/22 06:30:40;;;;;;;6.57;5.38;;;;;;;12.10;100.00;99754.81;4991532;28;20048;-92
2023/04/22 06:33:08;;;;;;;7.13;6.03;;;;;;;12.07;100.00;99740.88;4996870;28;20041;-93
2023/04/22 06:35:47;;;;;;;6.63;5.40;;;;;;;12.20;100.00;99755.06;4976249;28;20036;-94
2023/04/22 06:38:28;;;;;;;9.15;5.70;;;;;;;12.17;100.00;99741.97;4977937;28;20102;-93
2023/04/22 06:41:10;;;;;;;8.65;5.78;;;;;;;11.81;100.00;99668.22;4977682;28;20098;-92
2023/04/22 06:43:41;;;;;;;8.32;5.75;;;;;;;12.23;100.00;99717.72;4960519;28;20074;-92
2023/04/22 06:46:13;;;;;;;8.93;5.93;;;;;;;12.65;100.00;99754.75;4960611;28;20027;-91
2023/04/22 06:48:45;;;;;;;7.60;5.88;;;;;;;12.85;100.00;99766.72;4958829;28;20050;-91
2023/04/22 06:51:31;;;;;;;8.63;6.22;;;;;;;12.93;100.00;99737.81;4959824;28;20047;-92
2023/04/22 06:54:00;;;;;;;7.25;5.47;;;;;;;13.12;100.00;99749.88;4988377;28;20029;-92
2023/04/22 06:56:33;;;;;;;7.55;5.68;;;;;;;13.07;100.00;99720.09;4985338;28;20074;-93
2023/04/22 06:59:12;;;;;;;6.45;5.45;;;;;;;12.99;100.00;99670.97;5005853;28;20064;-91
2023/04/22 07:02:38;;;;;;;7.30;5.32;;;;;;;13.16;100.00;99661.03;4961221;28;20091;-92
2023/04/22 07:05:09;;;;;;;6.97;5.20;;;;;;;13.64;100.00;99689.50;4996554;28;20066;-93
2023/04/22 07:07:39;;;;;;;6.43;4.85;;;;;;;13.95;100.00;99728.09;4956488;28;20075;-93
2023/04/22 07:10:12;;;;;;;8.20;5.53;;;;;;;14.16;100.00;99746.16;4974094;28;20054;-93
2023/04/22 07:12:57;;;;;;;7.80;5.40;;;;;;;14.24;100.00;99728.66;4966153;28;20078;-94
2023/04/22 07:15:30;;;;;;;6.35;5.10;;;;;;;14.27;100.00;99703.63;4967859;28;20039;-92
2023/04/22 07:18:13;;;;;;;8.27;5.60;;;;;;;14.68;100.00;99725.41;5025906;28;20027;-93
2023/04/22 07:20:47;;;;;;;5.80;4.72;;;;;;;14.95;100.00;99730.47;4956926;28;20089;-93
2023/04/22 07:23:40;;;;;;;9.45;5.53;;;;;;;15.01;99.46;99710.50;4974699;28;20047;-92
2023/04/22 07:26:22;;;;;;;8.52;4.80;;;;;;;15.60;94.68;99739.75;5000169;28;20067;-92
2023/04/22 07:31:39;;;;;;;4.25;3.80;;;;;;;15.86;80.80;99682.53;5201361;22;20042;-92
2023/04/22 07:34:16;;;;;;;5.70;3.97;;;;;;;16.23;78.07;99706.22;5040695;28;20035;-92
2023/04/22 07:37:06;;;;;;;4.95;3.65;;;;;;;16.46;78.18;99703.41;5077297;28;20030;-93
2023/04/22 07:39:52;;;;;;;4.28;3.88;;;;;;;16.30;77.99;99660.22;5012569;28;20089;-93
2023/04/22 07:42:22;;;;;;;4.20;3.80;;;;;;;16.44;72.87;99657.25;5052406;28;20050;-92
2023/04/22 07:44:53;;;;;;;5.63;3.45;;;;;;;16.76;73.79;99741.97;5062735;28;20047;-92
2023/04/22 07:47:44;;;;;;;9.65;4.90;;;;;;;16.80;72.48;99730.06;5016758;28;20145;-92
2023/04/22 07:50:21;;;;;;;6.10;4.18;;;;;;;16.77;77.09;99731.16;5067229;28;20022;-93
2023/04/22 07:53:00;;;;;;;9.93;4.18;;;;;;;17.05;74.43;99726.16;4971175;28;20038;-93
2023/04/22 07:56:09;;;;;;;6.53;3.97;;;;;;;17.07;72.74;99711.69;4991791;28;20050;-93
2023/04/22 07:59:00;;;;;;;4.97;3.90;;;;;;;17.03;68.58;99674.63;5002794;28;20106;-94
2023/04/22 08:01:49;;;;;;;5.35;3.83;;;;;;;17.40;66.93;99683.03;4977474;28;20034;-93
2023/04/22 08:04:54;;;;;;;5.05;3.80;;;;;;;17.86;65.82;99726.25;4990828;28;20068;-92
2023/04/22 08:07:46;;;;;;;5.80;3.80;;;;;;;18.00;65.39;99727.72;5042625;28;20480;-93
2023/04/22 08:10:36;;;;;;;6.68;3.90;;;;;;;17.87;63.96;99693.13;4975363;28;20042;-94
2023/04/22 08:13:35;;;;;;;5.30;3.95;;;;;;;17.05;67.24;99681.53;5023385;28;20052;-93
2023/04/22 08:16:38;;;;;;;4.25;3.78;;;;;;;16.58;71.24;99680.16;5010032;28;20038;-92
2023/04/22 08:19:26;;;;;;;5.60;3.97;;;;;;;16.79;72.11;99688.25;5019736;28;20114;-93
2023/04/22 08:22:07;;;;;;;5.15;3.42;;;;;;;16.77;72.17;99676.81;4985373;28;20034;-92
2023/04/22 08:24:36;;;;;;;5.28;3.78;;;;;;;17.24;72.45;99718.28;5006191;28;20070;-93
2023/04/22 08:27:22;;;;;;;5.68;3.58;;;;;;;17.63;67.57;99692.56;4999842;28;20597;-93
2023/04/22 08:30:05;;;;;;;5.95;3.63;;;;;;;17.86;64.78;99720.06;5001194;28;20054;-93
2023/04/22 08:32:52;;;;;;;5.00;3.55;;;;;;;17.41;66.35;99665.97;4999551;28;20050;-91
2023/04/22 08:35:59;;;;;;;4.65;3.10;;;;;;;17.53;62.49;99663.09;4993275;28;20042;-94
2023/04/22 08:38:31;;;;;;;6.57;3.67;;;;;;;17.86;62.19;99718.22;5039269;28;20134;-94
2023/04/22 08:41:13;;;;;;;4.78;3.63;;;;;;;17.58;61.53;99660.00;5015963;28;20040;-91
2023/04/22 08:43:55;;;;;;;5.20;3.72;;;;;;;18.16;61.27;99708.44;5015227;28;20111;-92
2023/04/22 08:46:45;;;;;;;4.78;3.70;;;;;;;18.42;59.94;99714.16;5041743;28;20082;-93
2023/04/22 08:49:36;;;;;;;5.35;3.53;;;;;;;18.68;59.54;99723.41;5029019;28;20439;-91
2023/04/22 08:52:35;;;;;;;4.43;3.42;;;;;;;18.38;57.93;99646.59;5029414;28;20069;-92
2023/04/22 08:55:07;;;;;;;5.57;3.47;;;;;;;18.86;57.11;99637.72;5033879;28;20482;-93
2023/04/22 08:57:44;;;;;;;5.38;3.83;;;;;;;19.49;54.23;99686.31;4979333;28;20105;-92
2023/04/22 09:00:22;;;;;;;4.70;3.33;;;;;;;19.65;54.21;99683.06;5079203;28;20028;-91
2023/04/22 09:02:57;;;;;;;4.63;3.47;;;;;;;19.52;53.94;99659.19;5002935;28;20109;-93
2023/04/22 09:05:28;;;;;;;3.90;2.75;;;;;;;19.79;53.44;99702.22;5034453;28;20072;-93
2023/04/22 09:08:02;;;;;;;4.07;2.80;;;;;;;19.69;54.59;99698.69;5012668;28;20035;-92
2023/04/22 09:10:54;;;;;;;4.32;3.00;;;;;;;19.03;54.91;99654.94;5005759;28;20045;-92
2023/04/22 09:13:26;;;;;;;5.13;3.13;;;;;;;19.22;54.85;99676.34;4985507;28;20815;-91
2023/04/22 09:16:06;;;;;;;3.15;2.60;;;;;;;19.02;54.57;99650.53;5046792;28;20099;-92
2023/04/22 09:18:44;;;;;;;2.90;2.63;;;;;;;18.68;56.71;99618.81;5421218;22;20412;-91
2023/04/22 09:21:20;;;;;;;5.65;3.15;;;;;;;19.31;55.14;99691.59;5005231;28;20099;-89
2023/04/22 09:24:06;;;;;;;3.97;2.72;;;;;;;19.39;54.80;99658.63;4938131;28;20099;-92
2023/04/22 09:26:53;;;;;;;3.50;2.85;;;;;;;19.40;53.40;99646.91;4993750;28;20049;-92
2023/04/22 09:29:29;;;;;;;2.70;2.38;;;;;;;19.57;53.75;99657.75;4945495;28;20112;-93
2023/04/22 09:32:16;;;;;;;4.72;2.55;;;;;;;19.57;53.07;99654.22;4933242;28;20046;-92
2023/04/22 09:35:14;;;;;;;3.33;2.47;;;;;;;19.79;52.28;99698.69;4947167;28;20052;-91
2023/04/22 09:37:45;;;;;;;;;;;;;;;19.70;53.00;99697.72;5031559;28;20062;-91
2023/04/22 09:40:20;;;;;;;6.03;2.60;;;;;;;19.30;53.26;99660.38;4973220;28;19975;-92
2023/04/22 09:42:57;;;;;;;4.47;2.85;;;;;;;19.23;54.06;99657.41;4944224;28;20050;-92
2023/04/22 09:45:54;;;;;;;3.40;2.38;;;;;;;19.20;55.06;99694.44;4982586;28;20043;-93
2023/04/22 09:48:48;;;;;;;2.67;2.30;;;;;;;19.26;55.46;99675.06;4982850;28;20047;-93
2023/04/22 09:52:03;;;;;;;3.53;2.47;;;;;;;19.08;56.12;99613.22;4954350;28;20111;-93
2023/04/22 09:54:32;;;;;;;4.53;2.97;;;;;;;19.57;55.35;99633.59;4944306;28;20043;-96
2023/04/22 09:57:01;;;;;;;;;;;;;;;19.93;54.00;99684.75;4937489;28;20043;-93
2023/04/22 09:59:41;;;;;;;4.25;2.60;;;;;;;19.97;53.69;99656.59;4957123;28;19918;-94
2023/04/22 10:02:16;;;;;;;4.70;2.50;;;;;;;20.17;50.57;99628.59;4976789;28;20060;-93
2023/04/22 10:05:03;;;;;;;2.97;2.50;;;;;;;20.66;50.60;99680.22;4993118;28;20022;-93
2023/04/22 10:07:33;;;;;;;5.57;2.60;;;;;;;20.98;49.44;99667.06;4990046;28;20040;-93
2023/04/22 10:10:10;;;;;;;4.25;2.20;;;;;;;20.61;48.24;99632.28;4978183;28;20075;-93
2023/04/22 10:12:43;;;;;;;2.72;2.25;;;;;;;20.52;49.15;99606.28;4979017;28;20109;-92
2023/04/22 10:15:12;;;;;;;3.33;2.67;;;;;;;21.00;48.97;99665.06;4946446;28;20039;-92
2023/04/22 10:17:56;;;;;;;2.17;1.98;;;;;;;20.79;47.79;99617.94;4944497;28;20047;-93
2023/04/22 10:20:46;;;;;;;2.72;2.17;;;;;;;21.03;48.23;99634.28;4975069;28;20113;-92
2023/04/22 10:23:21;;;;;;;3.85;2.30;;;;;;;20.82;48.00;99586.19;4981745;28;20045;-92
2023/04/22 10:25:56;;;;;;;4.18;2.30;;;;;;;20.82;47.95;99658.00;4934210;28;20051;-92
2023/04/22 10:28:41;;;;;;;3.53;1.90;;;;;;;20.32;48.84;99615.47;4953884;28;20059;-92
2023/04/22 10:31:21;;;;;;;2.88;2.22;;;;;;;20.46;47.63;99627.59;4985316;28;20051;-93
2023/04/22 10:34:15;;;;;;;3.13;2.22;;;;;;;20.79;47.59;99634.94;4929175;28;20032;-93
2023/04/22 10:37:19;;;;;;;3.80;1.90;;;;;;;20.77;46.43;99593.06;4969095;28;20045;-92
2023/04/22 10:40:16;;;;;;;2.90;2.10;;;;;;;21.35;46.28;99661.47;4949783;28;20037;-92
2023/04/22 10:43:05;;;;;;;2.30;2.10;;;;;;;21.44;45.91;99658.81;4992198;28;20036;-92
2023/04/22 10:45:35;;;;;;;2.92;1.80;;;;;;;21.25;45.59;99612.25;4983459;28;20097;-92
2023/04/22 10:48:12;;;;;;;3.95;2.33;;;;;;;21.03;45.50;99610.06;4949950;28;20046;-91
2023/04/22 10:52:14;;;;;;;;;;;;;;;;;;;;;
2023/04/22 10:54:53;;;;;;;3.55;1.85;;;;;;;21.84;45.16;99636.63;4950247;28;20044;-92
2023/04/22 10:57:36;;;;;;;3.35;2.05;;;;;;;21.74;45.25;99590.94;4957582;28;20520;-92
2023/04/22 11:00:26;;;;;;;3.50;2.60;;;;;;;21.89;43.41;99594.69;4940366;28;20226;-93
2023/04/22 11:03:28;;;;;;;4.28;2.30;;;;;;;22.08;42.99;99593.59;4991530;28;20041;-93
2023/04/22 11:06:21;;;;;;;3.25;1.90;;;;;;;22.53;42.52;99617.44;4969470;28;20062;-95
2023/04/22 11:09:15;;;;;;;3.92;2.40;;;;;;;22.22;41.91;99530.09;4941008;28;20119;-95
2023/04/22 11:12:30;;;;;;;3.53;2.35;;;;;;;22.40;42.25;99579.31;4973535;28;20055;-93
2023/04/22 11:15:16;;;;;;;7.47;2.80;;;;;;;22.42;41.84;99616.94;4949124;28;20040;-94
2023/04/22 11:18:01;;;;;;;3.90;2.38;;;;;;;22.15;41.69;99554.19;4987413;28;20130;-93
2023/04/22 11:20:49;;;;;;;2.45;2.20;;;;;;;22.38;40.96;99551.69;4932774;28;20063;-93
2023/04/22 11:23:35;;;;;;;3.05;2.38;;;;;;;22.71;40.35;99580.34;4958973;28;20083;-93
2023/04/22 11:26:07;;;;;;;4.68;2.45;;;;;;;22.63;40.01;99556.06;4923737;28;20040;-90
2023/04/22 11:28:48;;;;;;;2.38;1.83;;;;;;;22.70;40.35;99550.81;4975028;28;20056;-91
2023/04/22 11:31:30;;;;;;;2.85;2.55;;;;;;;23.04;39.67;99581.19;4976704;28;20049;-93
2023/04/22 11:33:59;;;;;;;3.95;2.70;;;;;;;23.28;37.74;99588.41;4957768;28;20269;-92
2023/04/22 11:36:28;;;;;;;;;;;;;;;23.26;37.16;99589.59;4967020;28;20028;-91
2023/04/22 11:39:13;;;;;;;5.70;2.13;;;;;;;23.22;36.60;99577.44;4948714;28;19918;-93
2023/04/22 11:41:45;;;;;;;3.05;2.00;;;;;;;23.36;35.68;99591.06;4936419;28;20039;-93
2023/04/22 11:44:22;;;;;;;6.28;1.92;;;;;;;23.48;35.92;99588.00;4945788;28;20043;-93
2023/04/22 11:46:50;;;;;;;4.15;1.85;;;;;;;23.47;36.22;99586.31;4984606;28;20055;-93
2023/04/22 11:50:08;;;;;;;5.47;2.30;;;;;;;23.25;36.40;99539.28;4976390;28;20044;-93
2023/04/22 11:52:49;;;;;;;3.70;2.08;;;;;;;23.26;35.66;99531.00;4992191;28;20051;-93
2023/04/22 11:55:32;;;;;;;;;;;;;;;23.58;36.15;99586.81;4944579;28;20074;-93
2023/04/22 11:58:20;;;;;;;2.83;2.03;;;;;;;23.07;36.34;99588.94;4971917;28;19917;-92
2023/04/22 12:00:51;;;;;;;3.17;1.88;;;;;;;22.65;36.87;99529.78;4950319;28;20039;-92
2023/04/22 12:03:35;;;;;;;2.42;1.88;;;;;;;22.54;37.23;99545.44;4985759;28;20117;-93
2023/04/22 12:06:15;;;;;;;2.53;2.00;;;;;;;22.79;37.94;99571.44;4954547;28;20044;-94
2023/04/22 12:08:54;;;;;;;3.17;1.90;;;;;;;22.87;38.07;99575.97;4928453;28;20047;-93
2023/04/22 12:11:44;;;;;;;4.05;2.10;;;;;;;22.92;35.95;99552.03;4996028;28;20143;-92
2023/04/22 12:14:38;;;;;;;3.17;2.10;;;;;;;23.24;35.52;99564.59;4964884;28;20047;-92
2023/04/22 12:17:46;;;;;;;5.15;2.50;;;;;;;23.11;35.69;99516.53;5145399;27;20750;-93
2023/04/22 12:20:20;;;;;;;3.67;1.80;;;;;;;23.32;35.95;99567.28;5115089;28;20024;-92
2023/04/22 12:23:01;;;;;;;2.58;2.17;;;;;;;23.09;36.24;99537.47;5104716;28;20056;-92
2023/04/22 12:25:32;;;;;;;6.78;1.83;;;;;;;23.23;35.48;99550.25;5107832;28;20048;-92